sensor_id;sensor_type;location;lat;lon;timestamp;pressure;altitude;pressure_sealevel;temperature;humidity
11017;BME280;54687;50.800;6.772;2023-07-13T00:01:44;94040.41;;;-144.06;25.28
11017;BME280;54687;50.800;6.772;2023-07-13T00:04:15;94070.03;;;-144.06;25.37
11017;BME280;54687;50.800;6.772;2023-07-13T00:06:42;94036.16;;;-144.06;25.30
11017;BME280;54687;50.800;6.772;2023-07-13T00:09:10;94074.25;;;-144.06;25.15
11017;BME280;54687;50.800;6.772;2023-07-13T00:11:36;94036.16;;;-144.06;25.24
11017;BME280;54687;50.800;6.772;2023-07-13T00:14:05;94150.44;;;-144.06;24.93
11017;BME280;54687;50.800;6.772;2023-07-13T00:16:33;94023.47;;;-144.06;25.06
11017;BME280;54687;50.800;6.772;2023-07-13T00:19:00;94036.16;;;-144.06;25.19
11017;BME280;54687;50.800;6.772;2023-07-13T00:21:27;94048.88;;;-144.06;25.16
11017;BME280;54687;50.800;6.772;2023-07-13T00:23:54;94053.09;;;-144.06;25.08
11017;BME280;54687;50.800;6.772;2023-07-13T00:26:21;94053.09;;;-144.06;24.95
11017;BME280;54687;50.800;6.772;2023-07-13T00:28:47;94065.78;;;-144.06;25.29
11017;BME280;54687;50.800;6.772;2023-07-13T00:31:15;94070.03;;;-144.06;25.02
11017;BME280;54687;50.800;6.772;2023-07-13T00:33:42;94144.09;;;-144.06;25.02
11017;BME280;54687;50.800;6.772;2023-07-13T00:36:10;94084.84;;;-144.06;25.33
11017;BME280;54687;50.800;6.772;2023-07-13T00:38:37;94074.25;;;-144.06;25.32
11017;BME280;54687;50.800;6.772;2023-07-13T00:41:04;94042.50;;;-144.06;25.33
11017;BME280;54687;50.800;6.772;2023-07-13T00:43:30;94055.22;;;-144.06;25.29
11017;BME280;54687;50.800;6.772;2023-07-13T00:46:21;94112.34;;;-144.06;25.35
11017;BME280;54687;50.800;6.772;2023-07-13T00:48:48;94222.41;;;-144.06;25.12
11017;BME280;54687;50.800;6.772;2023-07-13T00:51:17;94129.28;;;-144.06;25.39
11017;BME280;54687;50.800;6.772;2023-07-13T00:53:46;94118.69;;;-144.06;25.30
11017;BME280;54687;50.800;6.772;2023-07-13T00:56:13;94171.63;;;-144.06;25.58
11017;BME280;54687;50.800;6.772;2023-07-13T00:58:39;94150.44;;;-144.06;25.52
11017;BME280;54687;50.800;6.772;2023-07-13T01:01:06;94144.09;;;-144.06;25.52
11017;BME280;54687;50.800;6.772;2023-07-13T01:03:35;94163.16;;;-144.06;25.34
11017;BME280;54687;50.800;6.772;2023-07-13T01:06:03;94133.53;;;-144.06;25.31
11017;BME280;54687;50.800;6.772;2023-07-13T01:08:29;94167.38;;;-144.06;25.63
11017;BME280;54687;50.800;6.772;2023-07-13T01:10:57;94163.16;;;-144.06;25.64
11017;BME280;54687;50.800;6.772;2023-07-13T01:13:25;94158.91;;;-144.06;25.58
11017;BME280;54687;50.800;6.772;2023-07-13T01:15:53;94156.81;;;-144.06;25.42
11017;BME280;54687;50.800;6.772;2023-07-13T01:18:22;94177.97;;;-144.06;25.52
11017;BME280;54687;50.800;6.772;2023-07-13T01:20:52;94150.44;;;-144.06;25.53
11017;BME280;54687;50.800;6.772;2023-07-13T01:23:19;94184.31;;;-144.06;25.83
11017;BME280;54687;50.800;6.772;2023-07-13T01:25:46;94180.09;;;-144.06;25.51
11017;BME280;54687;50.800;6.772;2023-07-13T01:28:13;94146.22;;;-144.06;25.52
11017;BME280;54687;50.800;6.772;2023-07-13T01:30:43;94167.38;;;-144.06;25.81
11017;BME280;54687;50.800;6.772;2023-07-13T01:33:12;94184.31;;;-144.06;25.55
11017;BME280;54687;50.800;6.772;2023-07-13T01:35:39;94156.81;;;-144.06;25.89
11017;BME280;54687;50.800;6.772;2023-07-13T01:38:08;94141.97;;;-144.06;25.59
11017;BME280;54687;50.800;6.772;2023-07-13T01:40:36;94152.56;;;-144.06;25.87
11017;BME280;54687;50.800;6.772;2023-07-13T01:43:03;94148.34;;;-144.06;25.63
11017;BME280;54687;50.800;6.772;2023-07-13T01:45:30;94167.38;;;-144.06;25.54
11017;BME280;54687;50.800;6.772;2023-07-13T01:47:57;94211.84;;;-144.06;25.80
11017;BME280;54687;50.800;6.772;2023-07-13T01:50:23;94197.00;;;-144.06;25.56
11017;BME280;54687;50.800;6.772;2023-07-13T01:52:50;94205.47;;;-144.06;25.85
11017;BME280;54687;50.800;6.772;2023-07-13T01:55:19;94213.94;;;-144.06;25.72
11017;BME280;54687;50.800;6.772;2023-07-13T01:57:46;94256.28;;;-144.06;25.93
11017;BME280;54687;50.800;6.772;2023-07-13T02:00:14;94224.53;;;-144.06;25.93
11017;BME280;54687;50.800;6.772;2023-07-13T02:02:39;94260.50;;;-144.06;25.67
11017;BME280;54687;50.800;6.772;2023-07-13T02:05:07;94260.50;;;-144.06;25.78
11017;BME280;54687;50.800;6.772;2023-07-13T02:07:34;94307.06;;;-144.06;25.96
11017;BME280;54687;50.800;6.772;2023-07-13T02:10:00;94294.38;;;-144.06;25.93
11017;BME280;54687;50.800;6.772;2023-07-13T02:12:28;94243.56;;;-144.06;25.64
11017;BME280;54687;50.800;6.772;2023-07-13T02:14:55;94268.97;;;-144.06;25.70
11017;BME280;54687;50.800;6.772;2023-07-13T02:17:21;94260.50;;;-144.06;25.68
11017;BME280;54687;50.800;6.772;2023-07-13T02:19:48;94262.63;;;-144.06;26.03
11017;BME280;54687;50.800;6.772;2023-07-13T02:22:15;94273.22;;;-144.06;26.00
11017;BME280;54687;50.800;6.772;2023-07-13T02:24:41;94304.97;;;-144.06;25.98
11017;BME280;54687;50.800;6.772;2023-07-13T02:27:08;94292.25;;;-144.06;25.89
11017;BME280;54687;50.800;6.772;2023-07-13T02:29:36;94383.28;;;-144.06;26.11
11017;BME280;54687;50.800;6.772;2023-07-13T02:32:03;94398.09;;;-144.06;26.20
11017;BME280;54687;50.800;6.772;2023-07-13T02:34:29;94387.50;;;-144.06;26.10
11017;BME280;54687;50.800;6.772;2023-07-13T02:36:56;94374.81;;;-144.06;26.13
11017;BME280;54687;50.800;6.772;2023-07-13T02:39:23;94385.41;;;-144.06;25.91
11017;BME280;54687;50.800;6.772;2023-07-13T02:41:49;94383.28;;;-144.06;26.30
11017;BME280;54687;50.800;6.772;2023-07-13T02:44:16;94379.03;;;-144.06;26.41
11017;BME280;54687;50.800;6.772;2023-07-13T02:46:44;94387.50;;;-144.06;26.05
11017;BME280;54687;50.800;6.772;2023-07-13T02:49:10;94417.16;;;-144.06;26.13
11017;BME280;54687;50.800;6.772;2023-07-13T02:51:37;94425.59;;;-144.06;26.47
11017;BME280;54687;50.800;6.772;2023-07-13T02:54:04;94391.75;;;-144.06;26.35
11017;BME280;54687;50.800;6.772;2023-07-13T02:56:33;94429.84;;;-144.06;26.19
11017;BME280;54687;50.800;6.772;2023-07-13T02:58:59;94480.66;;;-144.06;26.42
11017;BME280;54687;50.800;6.772;2023-07-13T03:01:26;94425.59;;;-144.06;26.37
11017;BME280;54687;50.800;6.772;2023-07-13T03:03:54;94451.00;;;-144.06;26.39
11017;BME280;54687;50.800;6.772;2023-07-13T03:06:21;94387.50;;;-144.06;26.25
11017;BME280;54687;50.800;6.772;2023-07-13T03:08:48;94429.84;;;-144.06;26.18
11017;BME280;54687;50.800;6.772;2023-07-13T03:11:18;94429.84;;;-144.06;26.33
11017;BME280;54687;50.800;6.772;2023-07-13T03:13:45;94419.25;;;-144.06;26.30
11017;BME280;54687;50.800;6.772;2023-07-13T03:16:13;94434.06;;;-144.06;26.25
11017;BME280;54687;50.800;6.772;2023-07-13T03:18:41;94451.00;;;-144.06;26.31
11017;BME280;54687;50.800;6.772;2023-07-13T03:21:10;94421.38;;;-144.06;26.27
11017;BME280;54687;50.800;6.772;2023-07-13T03:23:37;94408.69;;;-144.06;26.49
11017;BME280;54687;50.800;6.772;2023-07-13T03:26:05;94482.75;;;-144.06;26.17
11017;BME280;54687;50.800;6.772;2023-07-13T03:28:33;94446.78;;;-144.06;26.40
11017;BME280;54687;50.800;6.772;2023-07-13T03:31:01;94459.47;;;-144.06;26.17
11017;BME280;54687;50.800;6.772;2023-07-13T03:33:29;94395.97;;;-144.06;26.15
11017;BME280;54687;50.800;6.772;2023-07-13T03:35:56;94438.31;;;-144.06;26.37
11017;BME280;54687;50.800;6.772;2023-07-13T03:38:24;94412.91;;;-144.06;26.32
11017;BME280;54687;50.800;6.772;2023-07-13T03:40:51;94451.00;;;-144.06;26.44
11017;BME280;54687;50.800;6.772;2023-07-13T03:43:18;94487.00;;;-144.06;26.43
11017;BME280;54687;50.800;6.772;2023-07-13T03:45:46;94440.44;;;-144.06;26.13
11017;BME280;54687;50.800;6.772;2023-07-13T03:48:12;94429.84;;;-144.06;26.42
11017;BME280;54687;50.800;6.772;2023-07-13T03:50:39;94415.03;;;-144.06;26.41
11017;BME280;54687;50.800;6.772;2023-07-13T03:53:06;94379.03;;;-144.06;26.38
11017;BME280;54687;50.800;6.772;2023-07-13T03:55:34;94376.94;;;-144.06;26.51
11017;BME280;54687;50.800;6.772;2023-07-13T03:58:24;94383.28;;;-144.06;26.43
11017;BME280;54687;50.800;6.772;2023-07-13T04:00:51;94336.72;;;-144.06;26.52
11017;BME280;54687;50.800;6.772;2023-07-13T04:03:18;94324.00;;;-144.06;26.13
11017;BME280;54687;50.800;6.772;2023-07-13T04:05:44;94336.72;;;-144.06;26.37
11017;BME280;54687;50.800;6.772;2023-07-13T04:08:11;94362.09;;;-144.06;26.15
11017;BME280;54687;50.800;6.772;2023-07-13T04:10:39;94340.94;;;-144.06;26.05
11017;BME280;54687;50.800;6.772;2023-07-13T04:13:06;94357.88;;;-144.06;26.28
11017;BME280;54687;50.800;6.772;2023-07-13T04:15:32;94326.13;;;-144.06;26.25
11017;BME280;54687;50.800;6.772;2023-07-13T04:17:59;94315.53;;;-144.06;26.44
11017;BME280;54687;50.800;6.772;2023-07-13T04:20:26;94262.63;;;-144.06;26.49
11017;BME280;54687;50.800;6.772;2023-07-13T04:22:52;94311.31;;;-144.06;26.48
11017;BME280;54687;50.800;6.772;2023-07-13T04:25:20;94271.09;;;-144.06;26.20
11017;BME280;54687;50.800;6.772;2023-07-13T04:27:50;94226.66;;;-144.06;26.45
11017;BME280;54687;50.800;6.772;2023-07-13T04:30:17;94194.91;;;-144.06;26.28
11017;BME280;54687;50.800;6.772;2023-07-13T04:32:43;94184.31;;;-144.06;26.13
11017;BME280;54687;50.800;6.772;2023-07-13T04:35:10;94167.38;;;-144.06;26.05
11017;BME280;54687;50.800;6.772;2023-07-13T04:37:37;94137.75;;;-144.06;26.42
11017;BME280;54687;50.800;6.772;2023-07-13T04:40:04;94099.66;;;-144.06;26.30
11017;BME280;54687;50.800;6.772;2023-07-13T04:42:31;94078.50;;;-144.06;26.23
11017;BME280;54687;50.800;6.772;2023-07-13T04:45:01;94048.88;;;-144.06;26.23
11017;BME280;54687;50.800;6.772;2023-07-13T04:47:30;94006.53;;;-144.06;26.20
11017;BME280;54687;50.800;6.772;2023-07-13T04:49:56;93932.47;;;-144.06;25.79
11017;BME280;54687;50.800;6.772;2023-07-13T04:52:23;93877.44;;;-144.06;25.97
11017;BME280;54687;50.800;6.772;2023-07-13T04:54:50;93858.38;;;-144.06;25.93
11017;BME280;54687;50.800;6.772;2023-07-13T04:57:17;93833.00;;;-144.06;25.77
11017;BME280;54687;50.800;6.772;2023-07-13T04:59:43;93769.50;;;-144.06;25.63
11017;BME280;54687;50.800;6.772;2023-07-13T05:02:11;93761.03;;;-144.06;25.68
11017;BME280;54687;50.800;6.772;2023-07-13T05:04:38;93682.72;;;-144.06;25.51
11017;BME280;54687;50.800;6.772;2023-07-13T05:07:05;93634.06;;;-144.06;25.58
11017;BME280;54687;50.800;6.772;2023-07-13T05:09:32;93579.03;;;-144.06;25.51
11017;BME280;54687;50.800;6.772;2023-07-13T05:11:58;93540.94;;;-144.06;25.55
11017;BME280;54687;50.800;6.772;2023-07-13T05:14:25;93473.22;;;-144.06;25.60
11017;BME280;54687;50.800;6.772;2023-07-13T05:16:51;93401.28;;;-144.06;25.34
11017;BME280;54687;50.800;6.772;2023-07-13T05:19:19;93392.81;;;-144.06;25.27
11017;BME280;54687;50.800;6.772;2023-07-13T05:21:46;93291.25;;;-144.06;25.21
11017;BME280;54687;50.800;6.772;2023-07-13T05:24:12;93232.00;;;-144.06;25.14
11017;BME280;54687;50.800;6.772;2023-07-13T05:26:39;93138.91;;;-144.06;25.08
11017;BME280;54687;50.800;6.772;2023-07-13T05:29:06;93100.81;;;-144.06;24.86
11017;BME280;54687;50.800;6.772;2023-07-13T05:31:32;93058.50;;;-144.06;24.67
11017;BME280;54687;50.800;6.772;2023-07-13T05:33:59;93054.28;;;-144.06;24.70
11017;BME280;54687;50.800;6.772;2023-07-13T05:36:27;92929.44;;;-144.06;24.57
11017;BME280;54687;50.800;6.772;2023-07-13T05:38:53;92863.84;;;-144.06;24.40
11017;BME280;54687;50.800;6.772;2023-07-13T05:41:20;92815.19;;;-144.06;24.29
11017;BME280;54687;50.800;6.772;2023-07-13T05:43:46;92768.63;;;-144.06;24.33
11017;BME280;54687;50.800;6.772;2023-07-13T05:46:13;92669.22;;;-144.06;24.41
11017;BME280;54687;50.800;6.772;2023-07-13T05:48:40;92753.84;;;-144.06;24.25
11017;BME280;54687;50.800;6.772;2023-07-13T05:51:06;92656.50;;;-144.06;24.12
11017;BME280;54687;50.800;6.772;2023-07-13T05:53:34;92548.63;;;-144.06;24.36
11017;BME280;54687;50.800;6.772;2023-07-13T05:56:01;92402.66;;;-144.06;23.97
11017;BME280;54687;50.800;6.772;2023-07-13T05:58:27;92432.25;;;-144.06;24.02
11017;BME280;54687;50.800;6.772;2023-07-13T06:01:00;92275.72;;;-144.06;23.89
11017;BME280;54687;50.800;6.772;2023-07-13T06:03:27;92218.59;;;-144.06;23.66
11017;BME280;54687;50.800;6.772;2023-07-13T06:05:54;92114.97;;;-144.06;23.58
11017;BME280;54687;50.800;6.772;2023-07-13T06:08:20;92076.88;;;-144.06;23.38
11017;BME280;54687;50.800;6.772;2023-07-13T06:10:48;92066.31;;;-144.06;23.51
11017;BME280;54687;50.800;6.772;2023-07-13T06:13:15;92064.19;;;-144.06;23.45
11017;BME280;54687;50.800;6.772;2023-07-13T06:15:41;91949.97;;;-144.06;23.53
11017;BME280;54687;50.800;6.772;2023-07-13T06:18:08;91916.13;;;-144.06;23.23
11017;BME280;54687;50.800;6.772;2023-07-13T06:20:35;91751.16;;;-144.06;23.11
11017;BME280;54687;50.800;6.772;2023-07-13T06:23:02;91628.47;;;-144.06;23.15
11017;BME280;54687;50.800;6.772;2023-07-13T06:25:28;91571.38;;;-144.06;23.11
11017;BME280;54687;50.800;6.772;2023-07-13T06:27:56;91368.34;;;-144.06;23.04
11017;BME280;54687;50.800;6.772;2023-07-13T06:30:23;91260.50;;;-144.06;22.75
11017;BME280;54687;50.800;6.772;2023-07-13T06:32:50;91091.31;;;-144.06;22.69
11017;BME280;54687;50.800;6.772;2023-07-13T06:35:17;91108.22;;;-144.06;22.51
11017;BME280;54687;50.800;6.772;2023-07-13T06:37:43;91218.19;;;-144.06;22.44
11017;BME280;54687;50.800;6.772;2023-07-13T06:40:10;91148.41;;;-144.06;22.67
11017;BME280;54687;50.800;6.772;2023-07-13T06:42:37;90884.09;;;-144.06;22.43
11017;BME280;54687;50.800;6.772;2023-07-13T06:45:07;90448.53;;;-144.06;22.35
11017;BME280;54687;50.800;6.772;2023-07-13T06:47:35;90302.63;;;-144.06;22.00
11017;BME280;54687;50.800;6.772;2023-07-13T06:50:01;90393.56;;;-144.06;22.21
11017;BME280;54687;50.800;6.772;2023-07-13T06:52:29;90736.06;;;-144.06;22.32
11017;BME280;54687;50.800;6.772;2023-07-13T06:54:57;90816.41;;;-144.06;22.26
11017;BME280;54687;50.800;6.772;2023-07-13T06:57:23;90564.81;;;-144.06;22.27
11017;BME280;54687;50.800;6.772;2023-07-13T06:59:50;90490.81;;;-144.06;22.00
11017;BME280;54687;50.800;6.772;2023-07-13T07:02:18;90488.69;;;-144.06;22.07
11017;BME280;54687;50.800;6.772;2023-07-13T07:04:45;90554.22;;;-144.06;22.05
11017;BME280;54687;50.800;6.772;2023-07-13T07:07:12;90296.31;;;-144.06;21.90
11017;BME280;54687;50.800;6.772;2023-07-13T07:09:38;90560.59;;;-144.06;22.10
11017;BME280;54687;50.800;6.772;2023-07-13T07:12:06;90638.81;;;-144.06;22.05
11017;BME280;54687;50.800;6.772;2023-07-13T07:14:33;90774.13;;;-144.06;22.20
11017;BME280;54687;50.800;6.772;2023-07-13T07:17:01;90704.34;;;-144.06;22.16
11017;BME280;54687;50.800;6.772;2023-07-13T07:19:30;90653.59;;;-144.06;22.15
11017;BME280;54687;50.800;6.772;2023-07-13T07:21:57;90592.28;;;-144.06;22.19
11017;BME280;54687;50.800;6.772;2023-07-13T07:24:24;90733.97;;;-144.06;22.16
11017;BME280;54687;50.800;6.772;2023-07-13T07:26:50;90985.59;;;-144.06;22.29
11017;BME280;54687;50.800;6.772;2023-07-13T07:29:17;91010.97;;;-144.06;22.52
11017;BME280;54687;50.800;6.772;2023-07-13T07:31:43;91053.25;;;-144.06;22.52
11017;BME280;54687;50.800;6.772;2023-07-13T07:34:10;91027.88;;;-144.06;22.56
11017;BME280;54687;50.800;6.772;2023-07-13T07:36:38;91171.66;;;-144.06;22.70
11017;BME280;54687;50.800;6.772;2023-07-13T07:39:05;91184.38;;;-144.06;22.62
11017;BME280;54687;50.800;6.772;2023-07-13T07:41:32;91186.47;;;-144.06;22.68
11017;BME280;54687;50.800;6.772;2023-07-13T07:43:59;91268.94;;;-144.06;22.77
11017;BME280;54687;50.800;6.772;2023-07-13T07:46:25;91330.28;;;-144.06;22.64
11017;BME280;54687;50.800;6.772;2023-07-13T07:48:55;91465.63;;;-144.06;22.96
11017;BME280;54687;50.800;6.772;2023-07-13T07:51:21;91359.88;;;-144.06;22.75
11017;BME280;54687;50.800;6.772;2023-07-13T07:53:49;91497.34;;;-144.06;22.74
11017;BME280;54687;50.800;6.772;2023-07-13T07:56:16;91505.81;;;-144.06;23.06
11017;BME280;54687;50.800;6.772;2023-07-13T07:58:43;91287.97;;;-144.06;22.84
11017;BME280;54687;50.800;6.772;2023-07-13T08:01:10;91222.44;;;-144.06;22.62
11017;BME280;54687;50.800;6.772;2023-07-13T08:03:37;91097.66;;;-144.06;22.58
11017;BME280;54687;50.800;6.772;2023-07-13T08:06:03;90975.00;;;-144.06;22.65
11017;BME280;54687;50.800;6.772;2023-07-13T08:08:30;90951.75;;;-144.06;22.56
11017;BME280;54687;50.800;6.772;2023-07-13T08:11:02;90854.47;;;-144.06;22.30
11017;BME280;54687;50.800;6.772;2023-07-13T08:13:29;91010.97;;;-144.06;22.33
11017;BME280;54687;50.800;6.772;2023-07-13T08:15:56;90968.66;;;-144.06;22.34
11017;BME280;54687;50.800;6.772;2023-07-13T08:18:24;90784.72;;;-144.06;22.40
11017;BME280;54687;50.800;6.772;2023-07-13T08:20:50;90740.31;;;-144.06;22.02
11017;BME280;54687;50.800;6.772;2023-07-13T08:23:17;90717.03;;;-144.06;22.14
11017;BME280;54687;50.800;6.772;2023-07-13T08:25:50;90554.22;;;-144.06;21.93
11017;BME280;54687;50.800;6.772;2023-07-13T08:28:18;90905.22;;;-144.06;22.21
11017;BME280;54687;50.800;6.772;2023-07-13T08:30:45;90979.25;;;-144.06;22.33
11017;BME280;54687;50.800;6.772;2023-07-13T08:33:14;91042.69;;;-144.06;22.44
11017;BME280;54687;50.800;6.772;2023-07-13T08:35:40;90932.72;;;-144.06;22.20
11017;BME280;54687;50.800;6.772;2023-07-13T08:38:07;91230.88;;;-144.06;22.40
11017;BME280;54687;50.800;6.772;2023-07-13T08:40:34;91010.97;;;-144.06;22.51
11017;BME280;54687;50.800;6.772;2023-07-13T08:43:01;91013.06;;;-144.06;22.32
11017;BME280;54687;50.800;6.772;2023-07-13T08:45:33;90801.63;;;-144.06;22.20
11017;BME280;54687;50.800;6.772;2023-07-13T08:48:09;90753.00;;;-144.06;22.20
11017;BME280;54687;50.800;6.772;2023-07-13T08:50:48;90774.13;;;-144.06;22.15
11017;BME280;54687;50.800;6.772;2023-07-13T08:53:16;90824.88;;;-144.06;22.27
11017;BME280;54687;50.800;6.772;2023-07-13T08:55:44;90717.03;;;-144.06;22.23
11017;BME280;54687;50.800;6.772;2023-07-13T08:58:12;90727.63;;;-144.06;22.26
11017;BME280;54687;50.800;6.772;2023-07-13T09:00:46;90530.97;;;-144.06;22.15
11017;BME280;54687;50.800;6.772;2023-07-13T09:03:20;90461.22;;;-144.06;22.05
11017;BME280;54687;50.800;6.772;2023-07-13T09:05:51;90304.75;;;-144.06;21.83
11017;BME280;54687;50.800;6.772;2023-07-13T09:08:36;90402.00;;;-144.06;21.80
11017;BME280;54687;50.800;6.772;2023-07-13T09:11:16;90338.59;;;-144.06;21.90
11017;BME280;54687;50.800;6.772;2023-07-13T09:13:52;90480.22;;;-144.06;21.82
11017;BME280;54687;50.800;6.772;2023-07-13T09:16:25;90476.00;;;-144.06;21.69
11017;BME280;54687;50.800;6.772;2023-07-13T09:18:54;90566.91;;;-144.06;21.86
11017;BME280;54687;50.800;6.772;2023-07-13T09:21:25;90514.06;;;-144.06;21.88
11017;BME280;54687;50.800;6.772;2023-07-13T09:23:56;90518.28;;;-144.06;21.74
11017;BME280;54687;50.800;6.772;2023-07-13T09:26:28;90522.53;;;-144.06;21.79
11017;BME280;54687;50.800;6.772;2023-07-13T09:28:59;90573.25;;;-144.06;22.11
11017;BME280;54687;50.800;6.772;2023-07-13T09:31:35;90977.13;;;-144.06;22.08
11017;BME280;54687;50.800;6.772;2023-07-13T09:34:06;90820.66;;;-144.06;22.06
11017;BME280;54687;50.800;6.772;2023-07-13T09:36:35;90736.06;;;-144.06;22.08
11017;BME280;54687;50.800;6.772;2023-07-13T09:39:03;90552.13;;;-144.06;21.88
11017;BME280;54687;50.800;6.772;2023-07-13T09:41:36;90308.97;;;-144.06;21.88
11017;BME280;54687;50.800;6.772;2023-07-13T09:44:08;90448.53;;;-144.06;22.05
11017;BME280;54687;50.800;6.772;2023-07-13T09:46:38;90418.94;;;-144.06;22.00
11017;BME280;54687;50.800;6.772;2023-07-13T09:49:06;90313.22;;;-144.06;21.79
11017;BME280;54687;50.800;6.772;2023-07-13T09:51:34;90161.00;;;-144.06;21.80
11017;BME280;54687;50.800;6.772;2023-07-13T09:54:00;90254.00;;;-144.06;21.69
11017;BME280;54687;50.800;6.772;2023-07-13T09:56:28;90363.94;;;-144.06;21.26
11017;BME280;54687;50.800;6.772;2023-07-13T09:58:55;90103.91;;;-144.06;21.31
11017;BME280;54687;50.800;6.772;2023-07-13T10:01:41;90167.34;;;-144.06;20.83
11017;BME280;54687;50.800;6.772;2023-07-13T10:04:12;90053.19;;;-144.06;21.04
11017;BME280;54687;50.800;6.772;2023-07-13T10:06:40;90017.25;;;-144.06;21.37
11017;BME280;54687;50.800;6.772;2023-07-13T10:09:08;90013.00;;;-144.06;21.03
11017;BME280;54687;50.800;6.772;2023-07-13T10:11:36;90196.94;;;-144.06;21.19
11017;BME280;54687;50.800;6.772;2023-07-13T10:14:10;90264.59;;;-144.06;21.22
11017;BME280;54687;50.800;6.772;2023-07-13T10:16:38;90254.00;;;-144.06;21.08
11017;BME280;54687;50.800;6.772;2023-07-13T10:19:13;90226.53;;;-144.06;21.24
11017;BME280;54687;50.800;6.772;2023-07-13T10:21:46;90072.19;;;-144.06;21.05
11017;BME280;54687;50.800;6.772;2023-07-13T10:24:19;89920.00;;;-144.06;20.83
11017;BME280;54687;50.800;6.772;2023-07-13T10:26:53;89852.34;;;-144.06;20.69
11017;BME280;54687;50.800;6.772;2023-07-13T10:29:22;89805.84;;;-144.06;20.84
11017;BME280;54687;50.800;6.772;2023-07-13T10:31:50;89772.03;;;-144.06;20.57
11017;BME280;54687;50.800;6.772;2023-07-13T10:34:18;89848.13;;;-144.06;20.60
11017;BME280;54687;50.800;6.772;2023-07-13T10:36:47;89573.31;;;-144.06;20.58
11017;BME280;54687;50.800;6.772;2023-07-13T10:39:17;89562.75;;;-144.06;20.71
11017;BME280;54687;50.800;6.772;2023-07-13T10:41:46;89493.00;;;-144.06;20.78
11017;BME280;54687;50.800;6.772;2023-07-13T10:44:21;89793.16;;;-144.06;20.89
11017;BME280;54687;50.800;6.772;2023-07-13T10:46:52;89750.88;;;-144.06;20.73
11017;BME280;54687;50.800;6.772;2023-07-13T10:49:22;89590.25;;;-144.06;20.52
11017;BME280;54687;50.800;6.772;2023-07-13T10:51:49;89239.38;;;-144.06;20.69
11017;BME280;54687;50.800;6.772;2023-07-13T10:54:21;89400.00;;;-144.06;20.46
11017;BME280;54687;50.800;6.772;2023-07-13T10:56:52;89203.44;;;-144.06;20.61
11017;BME280;54687;50.800;6.772;2023-07-13T10:59:24;89374.66;;;-144.06;20.57
11017;BME280;54687;50.800;6.772;2023-07-13T11:01:56;89387.31;;;-144.06;20.72
11017;BME280;54687;50.800;6.772;2023-07-13T11:04:26;89416.91;;;-144.06;20.77
11017;BME280;54687;50.800;6.772;2023-07-13T11:06:58;89653.66;;;-144.06;20.84
11017;BME280;54687;50.800;6.772;2023-07-13T11:09:37;89640.97;;;-144.06;20.45
11017;BME280;54687;50.800;6.772;2023-07-13T11:12:25;89636.75;;;-144.06;20.49
11017;BME280;54687;50.800;6.772;2023-07-13T11:15:06;89681.13;;;-144.06;20.27
11017;BME280;54687;50.800;6.772;2023-07-13T11:17:46;89941.13;;;-144.06;20.34
11017;BME280;54687;50.800;6.772;2023-07-13T11:20:22;89698.03;;;-144.06;20.46
11017;BME280;54687;50.800;6.772;2023-07-13T11:22:51;89920.00;;;-144.06;20.62
11017;BME280;54687;50.800;6.772;2023-07-13T11:25:29;89545.84;;;-144.06;20.49
11017;BME280;54687;50.800;6.772;2023-07-13T11:28:16;89416.91;;;-144.06;20.44
11017;BME280;54687;50.800;6.772;2023-07-13T11:30:46;89497.22;;;-144.06;20.57
11017;BME280;54687;50.800;6.772;2023-07-13T11:33:15;89351.41;;;-144.06;20.49
11017;BME280;54687;50.800;6.772;2023-07-13T11:35:49;89531.06;;;-144.06;20.41
11017;BME280;54687;50.800;6.772;2023-07-13T11:38:19;89793.16;;;-144.06;20.41
11017;BME280;54687;50.800;6.772;2023-07-13T11:40:48;89928.44;;;-144.06;20.59
11017;BME280;54687;50.800;6.772;2023-07-13T11:43:16;90188.47;;;-144.06;20.83
11017;BME280;54687;50.800;6.772;2023-07-13T11:45:44;90287.84;;;-144.06;20.63
11017;BME280;54687;50.800;6.772;2023-07-13T11:48:22;90520.41;;;-144.06;20.92
11017;BME280;54687;50.800;6.772;2023-07-13T11:50:53;90459.09;;;-144.06;20.96
11017;BME280;54687;50.800;6.772;2023-07-13T11:53:20;90636.69;;;-144.06;21.04
11017;BME280;54687;50.800;6.772;2023-07-13T11:55:47;90759.34;;;-144.06;21.46
11017;BME280;54687;50.800;6.772;2023-07-13T11:58:19;90837.56;;;-144.06;21.46
11017;BME280;54687;50.800;6.772;2023-07-13T12:00:47;90810.06;;;-144.06;21.54
11017;BME280;54687;50.800;6.772;2023-07-13T12:03:16;90841.78;;;-144.06;21.44
11017;BME280;54687;50.800;6.772;2023-07-13T12:05:57;90905.22;;;-144.06;21.65
11017;BME280;54687;50.800;6.772;2023-07-13T12:08:24;90666.31;;;-144.06;21.42
11017;BME280;54687;50.800;6.772;2023-07-13T12:11:00;90746.66;;;-144.06;21.42
11017;BME280;54687;50.800;6.772;2023-07-13T12:13:35;90507.72;;;-144.06;21.25
11017;BME280;54687;50.800;6.772;2023-07-13T12:16:02;90731.84;;;-144.06;21.30
11017;BME280;54687;50.800;6.772;2023-07-13T12:18:30;90533.09;;;-144.06;21.12
11017;BME280;54687;50.800;6.772;2023-07-13T12:21:00;90433.72;;;-144.06;20.99
11017;BME280;54687;50.800;6.772;2023-07-13T12:23:30;90442.19;;;-144.06;21.06
11017;BME280;54687;50.800;6.772;2023-07-13T12:26:00;90328.00;;;-144.06;21.00
11017;BME280;54687;50.800;6.772;2023-07-13T12:28:33;90304.75;;;-144.06;21.11
11017;BME280;54687;50.800;6.772;2023-07-13T12:31:01;90435.84;;;-144.06;21.12
11017;BME280;54687;50.800;6.772;2023-07-13T12:33:29;90342.81;;;-144.06;20.95
11017;BME280;54687;50.800;6.772;2023-07-13T12:35:57;90389.31;;;-144.06;20.84
11017;BME280;54687;50.800;6.772;2023-07-13T12:38:25;90292.06;;;-144.06;21.03
11017;BME280;54687;50.800;6.772;2023-07-13T12:40:52;90287.84;;;-144.06;21.16
11017;BME280;54687;50.800;6.772;2023-07-13T12:43:20;90287.84;;;-144.06;21.00
11017;BME280;54687;50.800;6.772;2023-07-13T12:45:56;90370.28;;;-144.06;21.09
11017;BME280;54687;50.800;6.772;2023-07-13T12:48:23;90182.13;;;-144.06;20.88